Time;durP1;ratioP1;P1;durP2;ratioP2;P2;SDS_P1;SDS_P2;PMS_P1;PMS_P2;Temp;Humidity;BMP_temperature;BMP_pressure;BME280_temperature;BME280_humidity;BME280_pressure;Samples;Min_cycle;Max_cycle;Signal;HPM_P1;HPM_P2
2023/07/30 00:00:31;;;;;;;0.10;0.10;;;;;;;14.14;100.00;100801.31;5053618;28;20033;-49
2023/07/30 00:02:56;;;;;;;0.13;0.13;;;;;;;14.11;100.00;100804.72;5053676;28;20376;-49
2023/07/30 00:05:22;;;;;;;0.10;0.10;;;;;;;14.09;100.00;100813.31;5052864;28;20056;-49
2023/07/30 00:07:47;;;;;;;0.10;0.10;;;;;;;14.02;100.00;100807.19;5053653;28;20112;-49
2023/07/30 00:10:13;;;;;;;0.10;0.10;;;;;;;14.02;100.00;100814.06;5053713;28;20054;-49
2023/07/30 00:12:38;;;;;;;0.10;0.10;;;;;;;13.98;100.00;100808.84;5052627;28;20115;-48
2023/07/30 00:15:04;;;;;;;0.10;0.10;;;;;;;13.97;100.00;100803.66;5053466;28;20037;-50
2023/07/30 00:17:29;;;;;;;0.10;0.10;;;;;;;13.95;100.00;100802.75;5052402;28;20028;-47
2023/07/30 00:19:54;;;;;;;0.10;0.10;;;;;;;13.94;100.00;100799.28;5053676;28;20040;-50
2023/07/30 00:22:19;;;;;;;0.10;0.10;;;;;;;13.96;100.00;100795.00;5053561;28;20098;-49
2023/07/30 00:24:45;;;;;;;0.20;0.20;;;;;;;13.93;100.00;100796.66;5052436;28;20048;-48
2023/07/30 00:27:10;;;;;;;0.10;0.10;;;;;;;13.89;100.00;100795.75;5053709;28;20457;-50
2023/07/30 00:29:35;;;;;;;0.10;0.10;;;;;;;13.92;100.00;100803.56;5053106;28;20033;-48
2023/07/30 00:32:01;;;;;;;0.10;0.10;;;;;;;13.92;100.00;100802.72;5052442;28;20017;-50
2023/07/30 00:34:26;;;;;;;0.10;0.10;;;;;;;13.88;100.00;100812.16;5052918;28;20166;-50
2023/07/30 00:36:51;;;;;;;0.10;0.10;;;;;;;13.92;100.00;100805.31;5053239;28;20058;-49
2023/07/30 00:39:17;;;;;;;0.10;0.10;;;;;;;13.90;100.00;100810.44;5052476;28;20036;-47
2023/07/30 00:41:42;;;;;;;0.10;0.10;;;;;;;13.86;100.00;100811.25;5052900;28;20059;-48
2023/07/30 00:44:07;;;;;;;0.10;0.10;;;;;;;13.83;100.00;100806.03;5053064;28;20052;-50
2023/07/30 00:46:34;;;;;;;0.10;0.10;;;;;;;13.81;100.00;100806.00;5052024;28;20025;-50
2023/07/30 00:48:59;;;;;;;0.10;0.10;;;;;;;13.80;100.00;100804.25;5053021;28;20032;-49
2023/07/30 00:51:26;;;;;;;0.15;0.15;;;;;;;13.73;100.00;100812.75;5052873;28;20029;-48
2023/07/30 00:53:51;;;;;;;0.10;0.10;;;;;;;13.68;100.00;100808.38;5052187;28;20361;-49
2023/07/30 00:56:17;;;;;;;0.10;0.10;;;;;;;13.68;100.00;100819.59;5052960;28;20344;-47
2023/07/30 00:58:44;;;;;;;0.15;0.15;;;;;;;13.64;100.00;100822.97;5052839;28;20381;-49
2023/07/30 01:01:10;;;;;;;0.20;0.20;;;;;;;13.63;100.00;100821.22;5052050;28;20388;-47
2023/07/30 01:03:35;;;;;;;0.10;0.10;;;;;;;13.60;100.00;100816.00;5052544;28;20025;-46
2023/07/30 01:06:01;;;;;;;0.10;0.10;;;;;;;13.60;100.00;100818.59;5052268;28;20098;-47
2023/07/30 01:08:26;;;;;;;0.10;0.10;;;;;;;13.60;100.00;100826.38;5051855;28;20029;-48
2023/07/30 01:10:52;;;;;;;0.10;0.10;;;;;;;13.61;100.00;100828.13;5052763;28;20028;-49
2023/07/30 01:13:18;;;;;;;0.10;0.10;;;;;;;13.59;100.00;100830.66;5052821;28;20029;-48
2023/07/30 01:15:44;;;;;;;0.10;0.10;;;;;;;13.61;100.00;100833.31;5051514;28;20048;-45
2023/07/30 01:18:10;;;;;;;0.10;0.10;;;;;;;13.56;100.00;100830.63;5052528;28;20421;-48
2023/07/30 01:20:35;;;;;;;0.10;0.10;;;;;;;13.56;100.00;100842.72;5052528;28;20499;-48
2023/07/30 01:23:01;;;;;;;0.10;0.10;;;;;;;13.54;100.00;100840.06;5051752;28;20032;-48
2023/07/30 01:25:33;;;;;;;0.10;0.10;;;;;;;13.49;100.00;100842.59;5052216;28;20039;-48
2023/07/30 01:28:02;;;;;;;0.10;0.10;;;;;;;13.50;100.00;100840.88;5051757;28;20032;-47
2023/07/30 01:30:30;;;;;;;0.10;0.10;;;;;;;13.48;100.00;100840.84;5052225;28;20383;-49
2023/07/30 01:32:56;;;;;;;0.05;0.05;;;;;;;13.48;100.00;100842.56;5052691;28;20025;-48
2023/07/30 01:35:26;;;;;;;0.10;0.10;;;;;;;13.45;100.00;100851.16;5051882;28;20064;-49
2023/07/30 01:37:51;;;;;;;0.20;0.20;;;;;;;13.46;100.00;100850.28;5052627;28;20073;-48
2023/07/30 01:40:17;;;;;;;0.10;0.10;;;;;;;13.44;100.00;100857.19;5052546;28;20021;-48
2023/07/30 01:42:42;;;;;;;0.20;0.20;;;;;;;13.43;100.00;100855.44;5051181;28;20191;-46
2023/07/30 01:45:08;;;;;;;0.17;0.17;;;;;;;13.45;100.00;100853.75;5052278;28;20044;-48
2023/07/30 01:47:33;;;;;;;0.10;0.10;;;;;;;13.45;100.00;100848.56;5052291;28;20032;-49
2023/07/30 01:49:59;;;;;;;0.10;0.10;;;;;;;13.43;100.00;100854.56;5051794;28;20025;-48
2023/07/30 01:52:24;;;;;;;0.20;0.20;;;;;;;13.39;100.00;100861.41;5052152;28;20044;-49
2023/07/30 01:54:49;;;;;;;0.10;0.10;;;;;;;13.40;100.00;100857.09;5052151;28;20021;-49
2023/07/30 01:57:15;;;;;;;0.10;0.10;;;;;;;13.38;100.00;100851.88;5051498;28;20013;-48
2023/07/30 01:59:40;;;;;;;0.10;0.10;;;;;;;13.37;100.00;100857.91;5052025;28;20025;-48
2023/07/30 02:02:07;;;;;;;0.17;0.17;;;;;;;13.34;100.00;100856.09;5052437;28;20021;-50
2023/07/30 02:04:32;;;;;;;0.17;0.17;;;;;;;13.36;100.00;100863.03;5051462;28;20028;-49
2023/07/30 02:06:57;;;;;;;0.20;0.20;;;;;;;13.36;100.00;100858.69;5052402;28;20393;-49
2023/07/30 02:09:23;;;;;;;0.20;0.20;;;;;;;13.32;100.00;100856.91;5051962;28;20064;-47
2023/07/30 02:11:48;;;;;;;0.10;0.10;;;;;;;13.37;100.00;100854.44;5051264;28;20396;-49
2023/07/30 02:14:13;;;;;;;0.10;0.10;;;;;;;13.32;100.00;100851.72;5052013;28;20025;-49
2023/07/30 02:16:39;;;;;;;0.10;0.10;;;;;;;13.36;100.00;100853.53;5051702;28;20055;-47
2023/07/30 02:19:04;;;;;;;0.20;0.20;;;;;;;13.37;100.00;100857.91;5054643;28;20021;-50
2023/07/30 02:21:32;;;;;;;0.20;0.20;;;;;;;13.40;100.00;100849.31;5055735;28;20029;-49
2023/07/30 02:23:58;;;;;;;0.10;0.10;;;;;;;13.42;100.00;100847.63;5055767;28;20104;-48
2023/07/30 02:26:24;;;;;;;0.15;0.15;;;;;;;13.49;100.00;100850.38;5054570;28;20111;-48
2023/07/30 02:28:49;;;;;;;0.10;0.10;;;;;;;13.52;100.00;100848.66;5055607;28;20132;-49
2023/07/30 02:31:14;;;;;;;0.10;0.10;;;;;;;13.55;100.00;100848.72;5054993;28;20048;-50
2023/07/30 02:33:40;;;;;;;0.10;0.10;;;;;;;13.57;100.00;100847.03;5055383;28;20481;-49
2023/07/30 02:36:05;;;;;;;0.20;0.20;;;;;;;13.58;100.00;100839.31;5055648;28;20484;-50
2023/07/30 02:38:30;;;;;;;0.10;0.10;;;;;;;13.59;100.00;100837.56;5054381;28;20063;-48
2023/07/30 02:40:55;;;;;;;0.10;0.10;;;;;;;13.60;100.00;100836.72;5055424;28;20052;-49
2023/07/30 02:43:21;;;;;;;0.20;0.20;;;;;;;13.63;100.00;100841.94;5055083;28;20400;-48
2023/07/30 02:45:49;;;;;;;0.10;0.10;;;;;;;13.63;100.00;100836.78;5054451;28;20116;-44
2023/07/30 02:48:14;;;;;;;0.20;0.20;;;;;;;13.66;100.00;100837.69;5055300;28;20056;-47
2023/07/30 02:50:40;;;;;;;0.20;0.20;;;;;;;13.68;100.00;100845.50;5055156;28;20044;-46
2023/07/30 02:53:05;;;;;;;0.10;0.10;;;;;;;13.71;100.00;100840.38;5054598;28;20412;-45
2023/07/30 02:55:30;;;;;;;0.10;0.10;;;;;;;13.75;100.00;100834.41;5054888;28;20033;-45
2023/07/30 02:57:56;;;;;;;0.10;0.10;;;;;;;13.78;100.00;100842.19;5054929;28;20420;-44
2023/07/30 03:00:21;;;;;;;0.20;0.20;;;;;;;13.80;100.00;100840.53;5054467;28;20028;-47
2023/07/30 03:02:46;;;;;;;0.17;0.17;;;;;;;13.83;100.00;100845.75;5054900;28;20439;-48
2023/07/30 03:05:12;;;;;;;0.10;0.10;;;;;;;13.86;100.00;100842.31;5055100;28;20025;-47
2023/07/30 03:07:37;;;;;;;0.20;0.20;;;;;;;13.87;100.00;100846.66;5053957;28;20098;-48
2023/07/30 03:10:03;;;;;;;0.10;0.10;;;;;;;13.90;100.00;100844.13;5055030;28;20435;-48
2023/07/30 03:12:28;;;;;;;0.10;0.10;;;;;;;13.92;100.00;100837.25;5054708;28;20538;-48
2023/07/30 03:14:54;;;;;;;0.10;0.10;;;;;;;13.94;100.00;100837.28;5053972;28;20021;-45
2023/07/30 03:17:19;;;;;;;0.20;0.20;;;;;;;13.96;100.00;100835.59;5054945;28;20104;-47
2023/07/30 03:19:45;;;;;;;0.20;0.20;;;;;;;13.97;100.00;100843.38;5054460;28;20469;-48
2023/07/30 03:22:11;;;;;;;0.10;0.10;;;;;;;13.98;100.00;100844.22;5053974;28;20032;-45
2023/07/30 03:24:36;;;;;;;0.20;0.20;;;;;;;14.01;100.00;100852.06;5054613;28;20017;-48
2023/07/30 03:27:01;;;;;;;0.20;0.20;;;;;;;14.02;100.00;100846.06;5054772;28;20052;-49
2023/07/30 03:29:27;;;;;;;0.13;0.13;;;;;;;14.03;100.00;100847.78;5052699;28;20017;-46
2023/07/30 03:31:52;;;;;;;0.10;0.10;;;;;;;14.05;100.00;100848.69;5054570;28;20025;-46
2023/07/30 03:34:17;;;;;;;0.10;0.10;;;;;;;14.05;100.00;100848.69;5054635;28;20065;-49
2023/07/30 03:36:43;;;;;;;0.10;0.10;;;;;;;14.05;100.00;100846.09;5053243;28;20090;-48
2023/07/30 03:39:08;;;;;;;0.10;0.10;;;;;;;14.06;100.00;100846.94;5054405;28;20052;-50
2023/07/30 03:41:35;;;;;;;0.10;0.10;;;;;;;14.03;100.00;100855.53;5053322;28;20063;-49
2023/07/30 03:44:00;;;;;;;0.10;0.10;;;;;;;14.05;100.00;100856.44;5054004;28;20045;-48
2023/07/30 03:46:25;;;;;;;0.20;0.20;;;;;;;14.01;100.00;100854.66;5054074;28;20031;-47
2023/07/30 03:48:51;;;;;;;0.20;0.20;;;;;;;14.02;100.00;100861.59;5053188;28;20025;-49
2023/07/30 03:51:16;;;;;;;0.20;0.20;;;;;;;14.05;100.00;100866.81;5053969;28;20032;-48
2023/07/30 03:53:42;;;;;;;0.10;0.10;;;;;;;14.05;100.00;100865.97;5053703;28;20212;-49
2023/07/30 03:56:08;;;;;;;0.10;0.10;;;;;;;14.05;100.00;100869.41;5053102;28;20025;-49
2023/07/30 03:58:33;;;;;;;0.10;0.10;;;;;;;14.06;100.00;100873.75;5053492;28;20031;-49
2023/07/30 04:00:58;;;;;;;0.10;0.10;;;;;;;14.05;100.00;100866.81;5053999;28;20017;-48
2023/07/30 04:03:24;;;;;;;0.10;0.10;;;;;;;14.05;100.00;100872.00;5052745;28;20424;-48
2023/07/30 04:05:49;;;;;;;0.20;0.20;;;;;;;14.07;100.00;100870.31;5053820;28;20027;-44
2023/07/30 04:08:16;;;;;;;0.10;0.10;;;;;;;14.06;100.00;100878.94;5053792;28;20424;-48
2023/07/30 04:10:41;;;;;;;0.10;0.10;;;;;;;14.08;100.00;100873.78;5052647;28;20067;-45
2023/07/30 04:13:07;;;;;;;0.10;0.10;;;;;;;14.08;100.00;100877.22;5053558;28;20060;-44
2023/07/30 04:15:33;;;;;;;0.20;0.20;;;;;;;14.06;100.00;100872.84;5053409;28;20099;-44
2023/07/30 04:17:58;;;;;;;0.10;0.10;;;;;;;14.05;100.00;100872.00;5052934;28;20438;-44
2023/07/30 04:20:24;;;;;;;0.20;0.20;;;;;;;14.05;100.00;100879.78;5053267;28;20067;-49
2023/07/30 04:22:49;;;;;;;0.10;0.10;;;;;;;14.06;100.00;100873.75;5053313;28;20082;-45
2023/07/30 04:25:14;;;;;;;0.10;0.10;;;;;;;14.07;100.00;100883.28;5052571;28;20020;-44
2023/07/30 04:27:40;;;;;;;0.10;0.10;;;;;;;14.08;100.00;100877.22;5052879;28;20444;-44
2023/07/30 04:30:06;;;;;;;0.10;0.10;;;;;;;14.11;100.00;100879.88;5053263;28;20035;-45
2023/07/30 04:32:31;;;;;;;0.20;0.20;;;;;;;14.11;100.00;100882.47;5052394;28;20027;-45
2023/07/30 04:34:57;;;;;;;0.10;0.10;;;;;;;14.12;100.00;100879.00;5053300;28;20017;-48
2023/07/30 04:37:22;;;;;;;0.13;0.13;;;;;;;14.13;100.00;100887.66;5053090;28;20027;-44
2023/07/30 04:39:47;;;;;;;0.15;0.15;;;;;;;14.14;100.00;100873.88;5052337;28;20465;-45
2023/07/30 04:42:14;;;;;;;0.10;0.10;;;;;;;14.17;100.00;100881.69;5051942;28;20033;-44
2023/07/30 04:44:40;;;;;;;0.13;0.13;;;;;;;14.20;100.00;100878.25;5053018;28;20104;-46
2023/07/30 04:47:05;;;;;;;0.10;0.10;;;;;;;14.22;100.00;100879.16;5052170;28;20552;-44
2023/07/30 04:49:31;;;;;;;0.20;0.10;;;;;;;14.25;100.00;100876.63;5052909;28;20021;-45
2023/07/30 04:51:56;;;;;;;0.17;0.17;;;;;;;14.27;100.00;100887.88;5052299;28;20013;-45
2023/07/30 04:54:21;;;;;;;0.20;0.20;;;;;;;14.30;100.00;100875.81;5052954;28;20025;-44
2023/07/30 04:56:47;;;;;;;0.20;0.20;;;;;;;14.34;100.00;100868.97;5052454;28;20065;-44
2023/07/30 04:59:12;;;;;;;0.20;0.20;;;;;;;14.39;100.00;100885.47;5052256;28;20027;-47
2023/07/30 05:01:37;;;;;;;0.20;0.20;;;;;;;14.43;100.00;100883.78;5052787;28;20029;-45
2023/07/30 05:04:03;;;;;;;0.10;0.10;;;;;;;14.45;100.00;100888.16;5052960;28;20155;-45
2023/07/30 05:06:28;;;;;;;0.20;0.20;;;;;;;14.48;100.00;100892.50;5051793;28;20409;-49
2023/07/30 05:08:54;;;;;;;0.10;0.10;;;;;;;14.49;100.00;100896.84;5052659;28;20567;-44
2023/07/30 05:11:19;;;;;;;0.20;0.20;;;;;;;14.52;100.00;100899.47;5052673;28;20027;-45
2023/07/30 05:13:45;;;;;;;0.10;0.10;;;;;;;14.54;100.00;100907.28;5051865;28;20043;-44
2023/07/30 05:16:10;;;;;;;0.10;0.10;;;;;;;14.51;100.00;100912.44;5052583;28;20033;-45
2023/07/30 05:18:35;;;;;;;0.17;0.17;;;;;;;14.51;100.00;100902.91;5052551;28;20053;-45
2023/07/30 05:21:01;;;;;;;0.20;0.20;;;;;;;14.53;100.00;100906.41;5051898;28;20025;-44
2023/07/30 05:23:26;;;;;;;0.20;0.20;;;;;;;14.55;100.00;100914.19;5052384;28;20523;-45
2023/07/30 05:25:51;;;;;;;0.10;0.10;;;;;;;14.55;100.00;100911.59;5052406;28;20025;-48
2023/07/30 05:28:16;;;;;;;0.20;0.20;;;;;;;14.59;100.00;100910.78;5052008;28;20469;-43
2023/07/30 05:30:42;;;;;;;0.10;0.10;;;;;;;14.58;100.00;100916.88;5052407;28;20492;-46
2023/07/30 05:33:07;;;;;;;0.10;0.10;;;;;;;14.58;100.00;100920.31;5052392;28;20116;-49
2023/07/30 05:35:32;;;;;;;0.20;0.20;;;;;;;14.59;100.00;100910.78;5051502;28;20063;-48
2023/07/30 05:37:58;;;;;;;0.10;0.10;;;;;;;14.61;100.00;100909.13;5052529;28;20078;-45
2023/07/30 05:40:23;;;;;;;0.20;0.20;;;;;;;14.60;100.00;100910.84;5052103;28;20059;-49
2023/07/30 05:42:49;;;;;;;0.10;0.10;;;;;;;14.63;100.00;100910.03;5051432;28;20079;-45
2023/07/30 05:45:14;;;;;;;0.20;0.20;;;;;;;14.68;100.00;100910.09;5052317;28;20029;-45
2023/07/30 05:47:40;;;;;;;0.20;0.20;;;;;;;14.72;100.00;100906.69;5052194;28;20068;-44
2023/07/30 05:50:06;;;;;;;0.17;0.17;;;;;;;14.71;100.00;100904.97;5051676;28;20047;-45
2023/07/30 05:52:32;;;;;;;0.20;0.20;;;;;;;14.74;100.00;100905.84;5053217;28;20025;-46
2023/07/30 05:54:57;;;;;;;0.20;0.20;;;;;;;14.76;100.00;100909.34;5056224;28;20094;-44
2023/07/30 05:57:22;;;;;;;0.20;0.20;;;;;;;14.84;100.00;100906.00;5055013;28;20423;-47
2023/07/30 05:59:48;;;;;;;0.10;0.10;;;;;;;14.88;100.00;100913.81;5056266;28;20025;-49
2023/07/30 06:02:13;;;;;;;0.10;0.10;;;;;;;14.91;100.00;100908.69;5055195;28;20107;-44
2023/07/30 06:04:38;;;;;;;0.10;0.10;;;;;;;14.97;100.00;100918.28;5055786;28;20454;-44
2023/07/30 06:07:04;;;;;;;0.10;0.10;;;;;;;15.05;100.00;100919.22;5056127;28;20025;-44
2023/07/30 06:09:29;;;;;;;0.10;0.10;;;;;;;15.05;100.00;100908.84;5055063;28;20496;-44
2023/07/30 06:11:57;;;;;;;0.10;0.10;;;;;;;15.12;100.00;100923.66;5055818;28;20128;-48
2023/07/30 06:14:22;;;;;;;0.20;0.20;;;;;;;15.12;100.00;100921.06;5055949;28;20036;-44
2023/07/30 06:16:47;;;;;;;0.10;0.10;;;;;;;15.22;100.00;100919.44;5055072;28;20029;-49
2023/07/30 06:19:13;;;;;;;0.10;0.10;;;;;;;15.25;100.00;100924.66;5055866;28;20025;-45
2023/07/30 06:21:38;;;;;;;0.15;0.15;;;;;;;15.24;100.00;100924.66;5055546;28;20021;-45
2023/07/30 06:24:03;;;;;;;0.20;0.20;;;;;;;15.37;100.00;100925.66;5055049;28;20104;-47
2023/07/30 06:26:29;;;;;;;0.10;0.10;;;;;;;15.30;100.00;100914.34;5055308;28;20357;-44
2023/07/30 06:28:54;;;;;;;0.10;0.10;;;;;;;15.33;100.00;100916.97;5055857;28;20029;-46
2023/07/30 06:31:19;;;;;;;0.20;0.20;;;;;;;15.34;100.00;100916.13;5054963;28;20021;-50
2023/07/30 06:33:45;;;;;;;0.20;0.20;;;;;;;15.35;100.00;100919.56;5055251;28;20467;-49
2023/07/30 06:36:10;;;;;;;0.10;0.10;;;;;;;15.45;100.00;100924.91;5055512;28;20033;-48
2023/07/30 06:38:35;;;;;;;0.10;0.10;;;;;;;15.47;100.00;100917.97;5054322;28;20025;-46
2023/07/30 06:41:00;;;;;;;0.10;0.10;;;;;;;15.49;100.00;100918.00;5055225;28;20029;-46
2023/07/30 06:43:26;;;;;;;0.10;0.10;;;;;;;15.56;100.00;100914.59;5055029;28;20080;-44
2023/07/30 06:45:52;;;;;;;0.20;0.20;;;;;;;15.59;100.00;100921.56;5054727;28;20029;-43
2023/07/30 06:48:18;;;;;;;0.20;0.20;;;;;;;15.56;100.00;100918.94;5055425;28;20025;-44
2023/07/30 06:50:43;;;;;;;0.20;0.20;;;;;;;15.62;100.00;100913.78;5054944;28;20666;-44
2023/07/30 06:53:08;;;;;;;0.10;0.10;;;;;;;15.61;100.00;100922.47;5054303;28;20032;-47
2023/07/30 06:55:34;;;;;;;0.10;0.10;;;;;;;15.63;100.00;100923.34;5054686;28;20033;-46
2023/07/30 06:57:59;;;;;;;0.20;0.20;;;;;;;15.64;100.00;100918.13;5055315;28;20029;-45
2023/07/30 07:00:24;;;;;;;0.10;0.10;;;;;;;15.78;100.00;100912.22;5054244;28;20025;-44
2023/07/30 07:02:50;;;;;;;0.20;0.20;;;;;;;15.80;100.00;100924.38;5055092;28;20098;-44
2023/07/30 07:05:16;;;;;;;0.10;0.10;;;;;;;15.89;100.00;100917.53;5053769;28;20064;-44
2023/07/30 07:07:41;;;;;;;0.13;0.13;;;;;;;15.89;100.00;100926.19;5053794;28;20032;-43
2023/07/30 07:10:07;;;;;;;0.10;0.10;;;;;;;15.88;100.00;100928.78;5054752;28;20407;-44
2023/07/30 07:12:32;;;;;;;0.20;0.20;;;;;;;15.93;100.00;100922.78;5054418;28;20107;-48
2023/07/30 07:14:58;;;;;;;0.13;0.13;;;;;;;16.03;100.00;100925.47;5054929;28;20036;-48
2023/07/30 07:17:24;;;;;;;0.10;0.10;;;;;;;16.08;100.00;100928.97;5054451;28;20076;-48
2023/07/30 07:19:49;;;;;;;0.10;0.10;;;;;;;16.23;100.00;100938.59;5053946;28;20044;-44
2023/07/30 07:22:14;;;;;;;0.10;0.10;;;;;;;16.40;100.00;100947.41;5054574;28;20377;-50
2023/07/30 07:24:40;;;;;;;0.10;0.10;;;;;;;16.54;100.00;100931.03;5054238;28;20033;-45
2023/07/30 07:27:05;;;;;;;0.10;0.10;;;;;;;16.63;100.00;100933.69;5054000;28;20029;-46
2023/07/30 07:29:30;;;;;;;0.10;0.10;;;;;;;16.54;100.00;100938.81;5054442;28;20025;-48
2023/07/30 07:31:56;;;;;;;0.20;0.20;;;;;;;16.54;100.00;100936.22;5054570;28;20056;-47
2023/07/30 07:34:21;;;;;;;0.10;0.10;;;;;;;16.72;100.00;100938.06;5053624;28;20465;-49
2023/07/30 07:36:47;;;;;;;0.10;0.10;;;;;;;16.83;100.00;100925.13;5053908;28;20032;-45
2023/07/30 07:39:12;;;;;;;0.10;0.10;;;;;;;16.90;100.00;100929.47;5054238;28;20040;-44
2023/07/30 07:41:37;;;;;;;0.10;0.10;;;;;;;17.08;100.00;100932.22;5053340;28;20099;-50
2023/07/30 07:44:03;;;;;;;0.10;0.10;;;;;;;17.13;100.00;100939.19;5054031;28;20405;-47
2023/07/30 07:46:29;;;;;;;0.10;0.10;;;;;;;16.94;100.00;100941.72;5054110;28;20074;-49
2023/07/30 07:48:54;;;;;;;0.10;0.10;;;;;;;16.79;100.00;100950.25;5053381;28;20033;-44
2023/07/30 07:51:19;;;;;;;0.10;0.10;;;;;;;16.67;100.00;100939.78;5054137;28;20397;-44
2023/07/30 07:53:45;;;;;;;0.22;0.10;;;;;;;16.69;100.00;100957.13;5053705;28;20029;-48
2023/07/30 07:56:10;;;;;;;0.10;0.10;;;;;;;16.71;100.00;100950.22;5053015;28;20037;-48
2023/07/30 07:58:36;;;;;;;0.10;0.10;;;;;;;16.81;100.00;100942.47;5053595;28;20056;-44
2023/07/30 08:01:01;;;;;;;0.10;0.10;;;;;;;16.82;100.00;100950.28;5054046;28;20480;-45
2023/07/30 08:03:27;;;;;;;0.10;0.10;;;;;;;16.88;100.00;100955.50;5052973;28;20021;-46
2023/07/30 08:05:52;;;;;;;0.10;0.10;;;;;;;16.95;100.00;100946.03;5053859;28;20112;-44
2023/07/30 08:08:18;;;;;;;0.10;0.10;;;;;;;17.05;100.00;100947.81;5053731;28;20380;-44
2023/07/30 08:10:45;;;;;;;0.10;0.10;;;;;;;17.14;100.00;100952.19;5052471;28;20025;-46
2023/07/30 08:13:10;;;;;;;0.10;0.10;;;;;;;17.23;100.00;100959.19;5053631;28;20409;-44
2023/07/30 08:15:36;;;;;;;0.10;0.10;;;;;;;17.28;100.00;100960.06;5053054;28;20078;-49
2023/07/30 08:18:01;;;;;;;0.10;0.10;;;;;;;17.36;100.00;100960.09;5052777;28;20384;-45
2023/07/30 08:20:26;;;;;;;0.10;0.10;;;;;;;17.22;100.00;100954.84;5053283;28;20084;-48
2023/07/30 08:22:52;;;;;;;0.10;0.10;;;;;;;17.23;100.00;100951.38;5052506;28;20021;-48
2023/07/30 08:25:17;;;;;;;0.10;0.10;;;;;;;17.28;100.00;100957.47;5053405;28;20393;-48
2023/07/30 08:27:42;;;;;;;0.00;0.00;;;;;;;17.25;100.00;100966.13;5053005;28;20052;-48
2023/07/30 08:30:08;;;;;;;0.10;0.10;;;;;;;17.38;100.00;100955.78;5052460;28;20118;-47
2023/07/30 08:32:33;;;;;;;0.10;0.10;;;;;;;17.50;100.00;100954.94;5052922;28;20029;-45
2023/07/30 08:34:59;;;;;;;0.10;0.10;;;;;;;17.51;100.00;100956.69;5053391;28;20028;-45
2023/07/30 08:37:24;;;;;;;0.13;0.13;;;;;;;17.52;100.00;100950.56;5052136;28;20112;-50
2023/07/30 08:39:49;;;;;;;0.10;0.10;;;;;;;17.43;100.00;100954.91;5053174;28;20111;-46
2023/07/30 08:42:15;;;;;;;0.00;0.00;;;;;;;17.28;100.00;100947.03;5053115;28;20041;-50
2023/07/30 08:44:40;;;;;;;0.10;0.10;;;;;;;17.26;100.00;100946.16;5051978;28;20059;-49
2023/07/30 08:47:06;;;;;;;0.10;0.10;;;;;;;17.22;100.00;100958.31;5053015;28;20021;-51
2023/07/30 08:49:33;;;;;;;0.10;0.10;;;;;;;17.13;100.00;100963.47;5052839;28;20032;-47
2023/07/30 08:51:59;;;;;;;0.10;0.10;;;;;;;17.16;100.00;100955.69;5052312;28;20036;-45
2023/07/30 08:54:26;;;;;;;0.10;0.10;;;;;;;17.07;100.00;100961.72;5052525;28;20278;-47
2023/07/30 08:56:52;;;;;;;0.10;0.10;;;;;;;17.10;100.00;100966.06;5053031;28;20029;-51
2023/07/30 08:59:19;;;;;;;0.10;0.10;;;;;;;17.03;100.00;100962.56;5052241;28;20032;-51
2023/07/30 09:01:46;;;;;;;;;;;;;;;17.20;100.00;100956.56;5053013;28;20021;-51
2023/07/30 09:04:14;;;;;;;0.17;0.17;;;;;;;17.04;100.00;100950.41;5052963;28;19965;-46
2023/07/30 09:06:39;;;;;;;0.10;0.10;;;;;;;17.03;99.27;100959.97;5051687;28;20116;-51
2023/07/30 09:09:05;;;;;;;0.08;0.08;;;;;;;17.10;96.80;100959.13;5052725;28;20067;-46
2023/07/30 09:11:30;;;;;;;0.10;0.10;;;;;;;17.27;98.47;100958.31;5052569;28;20036;-51
2023/07/30 09:13:56;;;;;;;0.10;0.10;;;;;;;17.58;99.10;100959.31;5052082;28;20049;-45
2023/07/30 09:16:25;;;;;;;0.00;0.00;;;;;;;17.68;100.00;100968.00;5052704;28;20111;-46
2023/07/30 09:18:50;;;;;;;0.10;0.10;;;;;;;18.06;99.08;100964.63;5052652;28;20029;-49
2023/07/30 09:21:15;;;;;;;0.10;0.10;;;;;;;18.29;99.20;100963.72;5051824;28;20025;-48
2023/07/30 09:23:45;;;;;;;0.10;0.10;;;;;;;18.48;96.30;100961.97;5052555;28;20442;-50
2023/07/30 09:26:12;;;;;;;0.10;0.10;;;;;;;18.82;97.73;100968.88;5051874;28;20029;-47
2023/07/30 09:28:37;;;;;;;0.10;0.10;;;;;;;19.07;95.07;100959.28;5055512;28;20025;-50
2023/07/30 09:31:05;;;;;;;0.10;0.10;;;;;;;19.18;92.02;100961.81;5056814;28;20029;-47
2023/07/30 09:33:34;;;;;;;0.00;0.00;;;;;;;19.10;90.23;100961.84;5055617;28;20507;-50
2023/07/30 09:36:03;;;;;;;0.10;0.10;;;;;;;19.06;89.36;100958.38;5056478;28;20048;-48
2023/07/30 09:38:33;;;;;;;0.10;0.10;;;;;;;19.21;88.51;100948.75;5056508;28;20028;-45
2023/07/30 09:41:02;;;;;;;0.05;0.05;;;;;;;19.36;86.49;100950.41;5056218;28;20469;-44
2023/07/30 09:43:34;;;;;;;0.00;0.00;;;;;;;19.24;86.15;100952.22;5055956;28;20045;-47
2023/07/30 09:46:06;;;;;;;0.05;0.05;;;;;;;18.90;88.33;100952.34;5056320;28;20442;-47
2023/07/30 09:48:32;;;;;;;0.00;0.00;;;;;;;18.64;85.74;100952.38;5055063;28;20058;-48
2023/07/30 09:51:02;;;;;;;0.10;0.10;;;;;;;18.72;87.47;100965.41;5056619;28;20112;-49
2023/07/30 09:53:36;;;;;;;0.00;0.00;;;;;;;18.91;84.86;100975.00;5056016;28;20017;-45
2023/07/30 09:56:03;;;;;;;0.00;0.00;;;;;;;19.22;84.19;100969.66;5055487;28;20103;-42
2023/07/30 09:58:29;;;;;;;0.10;0.10;;;;;;;19.24;82.92;100972.25;5055951;28;20021;-47
2023/07/30 10:00:58;;;;;;;0.00;0.00;;;;;;;19.19;83.56;100971.41;5055953;28;20048;-44
2023/07/30 10:03:23;;;;;;;0.00;0.00;;;;;;;19.03;82.83;100967.97;5055027;28;20028;-47
2023/07/30 10:05:52;;;;;;;0.10;0.10;;;;;;;18.86;83.63;100971.50;5056182;28;20037;-43
2023/07/30 10:08:23;;;;;;;0.00;0.00;;;;;;;18.80;85.82;100986.28;5055392;28;20025;-43
2023/07/30 10:10:49;;;;;;;0.10;0.10;;;;;;;18.96;85.99;100987.16;5056326;28;20037;-45
2023/07/30 10:13:16;;;;;;;0.00;0.00;;;;;;;18.86;84.38;100987.16;5056084;28;20075;-46
2023/07/30 10:15:43;;;;;;;0.00;0.00;;;;;;;18.88;85.80;100985.41;5054752;28;20099;-49
2023/07/30 10:18:09;;;;;;;0.10;0.10;;;;;;;18.79;87.37;100993.25;5056056;28;20103;-45
2023/07/30 10:20:34;;;;;;;0.00;0.00;;;;;;;18.78;85.40;100985.44;5055766;28;20049;-42
2023/07/30 10:23:00;;;;;;;0.00;0.00;;;;;;;18.86;89.51;101001.94;5055120;28;20420;-46
2023/07/30 10:25:48;;;;;;;0.00;0.00;;;;;;;18.66;91.52;101031.56;5055523;28;20029;-45
2023/07/30 10:28:33;;;;;;;0.00;0.00;;;;;;;18.22;95.92;101024.63;5055686;28;20025;-48
2023/07/30 10:31:04;;;;;;;0.00;0.00;;;;;;;17.51;100.00;101027.03;5055103;28;20017;-45
2023/07/30 10:33:45;;;;;;;0.05;0.05;;;;;;;17.36;100.00;101040.84;5055365;28;20100;-44
2023/07/30 10:36:11;;;;;;;0.00;0.00;;;;;;;17.14;100.00;101027.72;5055409;28;20128;-49
2023/07/30 10:38:36;;;;;;;0.00;0.00;;;;;;;16.98;100.00;101037.19;5054278;28;20108;-43
2023/07/30 10:41:10;;;;;;;0.10;0.10;;;;;;;16.81;100.00;101037.06;5055310;28;20068;-48
2023/07/30 10:43:42;;;;;;;0.00;0.00;;;;;;;16.83;100.00;101030.09;5054155;28;20370;-48
2023/07/30 10:46:11;;;;;;;0.10;0.10;;;;;;;16.82;100.00;101033.56;5055193;28;20392;-46
2023/07/30 10:48:43;;;;;;;0.10;0.10;;;;;;;16.93;100.00;101031.09;5055105;28;20057;-47
2023/07/30 10:51:10;;;;;;;0.05;0.05;;;;;;;17.10;100.00;101028.56;5054503;28;20028;-42
2023/07/30 10:53:39;;;;;;;0.10;0.10;;;;;;;17.47;100.00;101025.25;5055097;28;20025;-49
2023/07/30 10:56:06;;;;;;;0.10;0.10;;;;;;;17.93;100.00;101028.03;5054786;28;20029;-43
2023/07/30 10:58:33;;;;;;;0.10;0.10;;;;;;;18.40;100.00;101024.63;5053735;28;20090;-48
2023/07/30 11:00:59;;;;;;;0.10;0.10;;;;;;;20.47;95.44;101033.38;5052153;28;20025;-44
2023/07/30 11:03:27;;;;;;;0.00;0.00;;;;;;;21.79;85.93;101024.13;5054682;28;20027;-47
2023/07/30 11:05:54;;;;;;;0.00;0.00;;;;;;;21.40;82.49;101026.38;5054375;28;20021;-44
2023/07/30 11:08:19;;;;;;;0.00;0.00;;;;;;;20.99;79.48;101023.31;5055102;28;20032;-47
2023/07/30 11:10:48;;;;;;;0.00;0.00;;;;;;;20.62;85.18;101036.75;5054787;28;20048;-47
2023/07/30 11:13:14;;;;;;;0.00;0.00;;;;;;;20.13;82.66;101028.44;5054090;28;20024;-43